Startpagina
METAR-TAF:

METAR-TAF

Vliegvelden :

Mönchengladbach, Duitsland

Flughafen Mönchengladbach

breedte: 51-13-49N, lengte: 006-30-16E, hoogte: 38 m

Actueel weer

Dit bericht is 21 minuten geleden gemaakt, om 07:20 UTC
Wind 2 kt uit variabele richting
Temperatuur 8°C
Vochtigheid 100%
Druk 1007 hPa
Zicht: 5000 m
Verspreide wolken op 3400 ft
Gebroken wolken op 6000 ft
regen, nevel

METAR: EDLN 240720Z VRB02KT 5000 RA BR SCT034 BKN060 08/08 Q1007

Tijdstip: 08:41 (07:41 UTC)

Verwachting

Dit bericht is 14 uur en het 41 minuten geleden gemaakt, om 17:00 UTC
Verwachting geldig van 23 om 18 UTC tot 24 om 03 UTC
Wind 7 kt uit het zuidwesten
Zicht 10 km of meer
Gebroken wolken op 3000 ft
Wijzigt naar
van 24 om 00 UTC tot 24 om 03 UTC
Wind 4 kt uit het zuiden

TAF: EDLN 231700Z 2318/2403 23007KT 9999 BKN030 BECMG 2400/2403 17004KT

Waarnemingen en weersverwachtingen van meer dan 4000 vliegvelden (METAR en TAF).

De beschikbare stations zijn de gele en rode punten op de kaart.

Ga met uw muis naar het station om de naam te zien.

Klik dan om waarnemingen en weersverwachtingen te zien.

kaart wijzigen: klik op de groene knoppen met een zwart kruis om in te zoomen, op de groene knop met een streepje om uit te zoomen of op de groene pijlen voor aangrenzende kaarten.


METAR-TAF: